Appleton, Illinois
Current Conditions -  °F | °C
As of 7:55 PM on Monday 24 Nov 2014 (Local Time) from KGBG Reporting Station
Overcast Overcast  
Wind Chill: 16°   Ceiling: 2200
Heat Index: 28°   Visibility: 10mi
Dew Point: 24°   Wind: 17mph
Humidity: 84%   Direction: 250°WSW
Pressure: 29.84"   Gusts: 24mph
Location:  40.9602°N, 90.1517°W
Report Text: KGBG 250155Z AUTO 25015G21KT 10SM OVC022 M02/M05 A2984 RMK AO2 T10221046
Loading
Personal Weather Stations






























Interactive Weather Map New forecast layout! Learn more

10-Day Weather Forecast

Advertisements
Track Severe Weather on mobile